createdAt,value
2018-06-18T00:00:08.856Z,6.66
2018-06-18T00:00:21.290Z,6.66
2018-06-18T00:00:33.767Z,6.66
2018-06-18T00:00:46.187Z,6.66
2018-06-18T00:00:58.595Z,6.66
2018-06-18T00:01:11.201Z,6.66
2018-06-18T00:01:23.606Z,6.66
2018-06-18T00:01:36.038Z,6.66
2018-06-18T00:01:48.453Z,6.66
2018-06-18T00:02:00.865Z,6.66
2018-06-18T00:02:13.266Z,6.66
2018-06-18T00:02:25.678Z,6.66
2018-06-18T00:02:38.270Z,6.66
2018-06-18T00:02:50.667Z,6.66
2018-06-18T00:03:03.069Z,6.66
2018-06-18T00:03:15.480Z,6.66
2018-06-18T00:03:27.893Z,6.66
2018-06-18T00:03:40.324Z,6.66
2018-06-18T00:03:52.728Z,6.66
2018-06-18T00:04:05.123Z,6.66
2018-06-18T00:04:17.523Z,6.66
2018-06-18T00:04:29.941Z,6.66
2018-06-18T00:04:42.370Z,6.66
2018-06-18T00:04:54.775Z,6.66
2018-06-18T00:05:07.175Z,6.66
2018-06-18T00:05:19.580Z,5.41
2018-06-18T00:05:31.971Z,5.41
2018-06-18T00:05:44.352Z,5.41
2018-06-18T00:05:56.739Z,5.41
2018-06-18T00:06:09.150Z,5.41
2018-06-18T00:06:21.542Z,5.41
2018-06-18T00:06:33.938Z,5.41
2018-06-18T00:06:46.328Z,5.41
2018-06-18T00:06:58.732Z,5.41
2018-06-18T00:07:11.264Z,5.41
2018-06-18T00:07:23.667Z,5.41
2018-06-18T00:07:36.053Z,5.41
2018-06-18T00:07:48.448Z,5.41
2018-06-18T00:08:00.836Z,5.41
2018-06-18T00:08:13.248Z,5.41
2018-06-18T00:08:25.656Z,5.41
2018-06-18T00:08:38.047Z,5.41
2018-06-18T00:08:50.434Z,5.41
2018-06-18T00:09:02.848Z,5.41
2018-06-18T00:09:15.230Z,5.41
2018-06-18T00:09:27.671Z,5.41
2018-06-18T00:09:40.115Z,5.41
2018-06-18T00:09:52.556Z,5.41
2018-06-18T00:10:04.961Z,5.41
2018-06-18T00:10:17.373Z,5.41
2018-06-18T00:10:29.775Z,5.41
2018-06-18T00:10:42.174Z,5.41
2018-06-18T00:10:54.857Z,5.41
2018-06-18T00:11:07.283Z,5.41
2018-06-18T00:11:19.674Z,5.41
2018-06-18T00:11:32.082Z,5.41
2018-06-18T00:11:44.484Z,5.41
2018-06-18T00:11:56.905Z,5.41
2018-06-18T00:12:09.302Z,5.41
2018-06-18T00:12:21.693Z,5.41
2018-06-18T00:12:34.099Z,5.41
2018-06-18T00:12:46.513Z,5.41
2018-06-18T00:12:58.950Z,5.41
2018-06-18T00:13:11.333Z,5.41
2018-06-18T00:13:23.731Z,5.41
2018-06-18T00:13:36.145Z,5.41
2018-06-18T00:13:48.540Z,5.41
2018-06-18T00:14:01.076Z,5.41
2018-06-18T00:14:13.490Z,5.41
2018-06-18T00:14:25.906Z,5.41
2018-06-18T00:14:38.304Z,5.41
2018-06-18T00:14:50.745Z,5.41
2018-06-18T00:15:03.175Z,5.41
2018-06-18T00:15:15.588Z,5.3
2018-06-18T00:15:28.001Z,5.3
2018-06-18T00:15:40.396Z,5.3
2018-06-18T00:15:52.837Z,5.3
2018-06-18T00:16:05.236Z,5.3
2018-06-18T00:16:17.644Z,5.3
2018-06-18T00:16:30.038Z,5.3
2018-06-18T00:16:42.439Z,5.3
2018-06-18T00:16:54.848Z,5.3
2018-06-18T00:17:07.251Z,5.3
2018-06-18T00:17:19.659Z,5.3
2018-06-18T00:17:32.059Z,5.3
2018-06-18T00:17:44.462Z,5.3
2018-06-18T00:17:56.960Z,5.3
2018-06-18T00:18:09.365Z,5.3
2018-06-18T00:18:21.756Z,5.3
2018-06-18T00:18:34.163Z,5.3
2018-06-18T00:18:46.576Z,5.3
2018-06-18T00:18:58.972Z,5.3
2018-06-18T00:19:11.508Z,5.3
2018-06-18T00:19:23.893Z,5.3
2018-06-18T00:19:36.279Z,5.3
2018-06-18T00:19:48.683Z,5.3
2018-06-18T00:20:01.134Z,5.3
2018-06-18T00:20:13.530Z,5.3
2018-06-18T00:20:26.028Z,5.3
2018-06-18T00:20:38.414Z,5.3
2018-06-18T00:20:50.818Z,5.3
2018-06-18T00:21:03.220Z,5.3
2018-06-18T00:21:15.614Z,5.3
2018-06-18T00:21:28.025Z,5.3
2018-06-18T00:21:40.606Z,5.3
2018-06-18T00:21:53.036Z,5.3
2018-06-18T00:22:05.443Z,5.3
2018-06-18T00:22:17.851Z,5.3
2018-06-18T00:22:30.252Z,5.3
2018-06-18T00:22:42.653Z,5.3
2018-06-18T00:22:55.066Z,5.3
2018-06-18T00:23:07.490Z,5.3
2018-06-18T00:23:19.891Z,5.3
2018-06-18T00:23:32.283Z,5.3
2018-06-18T00:23:44.745Z,5.3
2018-06-18T00:23:57.162Z,5.3
2018-06-18T00:24:09.577Z,5.3
2018-06-18T00:24:21.972Z,5.3
2018-06-18T00:24:34.355Z,5.3
2018-06-18T00:24:46.811Z,5.3
2018-06-18T00:24:59.205Z,5.3
2018-06-18T00:25:11.642Z,5.11
2018-06-18T00:25:24.025Z,5.11
2018-06-18T00:25:36.424Z,5.11
2018-06-18T00:25:48.849Z,5.11
2018-06-18T00:26:01.507Z,5.11
2018-06-18T00:26:13.909Z,5.11
2018-06-18T00:26:26.316Z,5.11
2018-06-18T00:26:38.702Z,5.11
2018-06-18T00:26:51.099Z,5.11
2018-06-18T00:27:03.506Z,5.11
2018-06-18T00:27:15.909Z,5.11
2018-06-18T00:27:28.303Z,5.11
2018-06-18T00:27:40.711Z,5.11
2018-06-18T00:27:53.106Z,5.11
2018-06-18T00:28:05.519Z,5.11
2018-06-18T00:28:17.906Z,5.11
2018-06-18T00:28:30.288Z,5.11
2018-06-18T00:28:42.722Z,5.11
2018-06-18T00:28:55.121Z,5.11
2018-06-18T00:29:07.518Z,5.11
2018-06-18T00:29:20.049Z,5.11
2018-06-18T00:29:32.469Z,5.11
2018-06-18T00:29:44.998Z,5.11
2018-06-18T00:29:57.399Z,5.11
2018-06-18T00:30:09.933Z,5.11
2018-06-18T00:30:22.358Z,5.11
2018-06-18T00:30:34.787Z,5.11
2018-06-18T00:30:47.182Z,5.11
2018-06-18T00:30:59.588Z,5.11
2018-06-18T00:31:12.019Z,5.11
2018-06-18T00:31:24.424Z,5.11
2018-06-18T00:31:36.802Z,5.11
2018-06-18T00:31:49.194Z,5.11
2018-06-18T00:32:01.618Z,5.11
2018-06-18T00:32:14.026Z,5.11
2018-06-18T00:32:26.414Z,5.11
2018-06-18T00:32:38.801Z,5.11
2018-06-18T00:32:51.209Z,5.11
2018-06-18T00:33:03.614Z,5.11
2018-06-18T00:33:16.006Z,5.11
2018-06-18T00:33:28.419Z,5.11
2018-06-18T00:33:40.807Z,5.11
2018-06-18T00:33:53.230Z,5.11
2018-06-18T00:34:05.655Z,5.11
2018-06-18T00:34:18.116Z,5.11
2018-06-18T00:34:30.520Z,5.11
2018-06-18T00:34:42.940Z,5.11
2018-06-18T00:34:55.371Z,5.11
2018-06-18T00:35:07.753Z,5.11
2018-06-18T00:35:20.165Z,6.07
2018-06-18T00:35:32.581Z,6.07
2018-06-18T00:35:44.982Z,6.07
2018-06-18T00:35:57.383Z,6.07
2018-06-18T00:36:09.817Z,6.07
2018-06-18T00:36:22.262Z,6.07
2018-06-18T00:36:34.654Z,6.07
2018-06-18T00:36:47.050Z,6.07
2018-06-18T00:36:59.445Z,6.07
2018-06-18T00:37:11.861Z,6.07
2018-06-18T00:37:24.278Z,6.07
2018-06-18T00:37:36.697Z,6.07
2018-06-18T00:37:49.097Z,6.07
2018-06-18T00:38:01.485Z,6.07
2018-06-18T00:38:13.886Z,6.07
2018-06-18T00:38:26.349Z,6.07
2018-06-18T00:38:38.762Z,6.07
2018-06-18T00:38:51.153Z,6.07
2018-06-18T00:39:03.560Z,6.07
2018-06-18T00:39:15.978Z,6.07
2018-06-18T00:39:28.425Z,6.07
2018-06-18T00:39:40.835Z,6.07
2018-06-18T00:39:53.236Z,6.07
2018-06-18T00:40:05.703Z,6.07
2018-06-18T00:40:18.098Z,6.07
2018-06-18T00:40:30.483Z,6.07
2018-06-18T00:40:42.889Z,6.07
2018-06-18T00:40:55.311Z,6.07
2018-06-18T00:41:07.719Z,6.07
2018-06-18T00:41:20.119Z,6.07
2018-06-18T00:41:32.505Z,6.07
2018-06-18T00:41:44.890Z,6.07
2018-06-18T00:41:57.452Z,6.07
2018-06-18T00:42:09.852Z,6.07
2018-06-18T00:42:22.280Z,6.07
2018-06-18T00:42:34.692Z,6.07
2018-06-18T00:42:47.094Z,6.07
2018-06-18T00:42:59.482Z,6.07
2018-06-18T00:43:11.889Z,6.07
2018-06-18T00:43:24.297Z,6.07
2018-06-18T00:43:36.688Z,6.07
2018-06-18T00:43:49.151Z,6.07
2018-06-18T00:44:01.536Z,6.07
2018-06-18T00:44:13.933Z,6.07
2018-06-18T00:44:26.314Z,6.07
2018-06-18T00:44:38.725Z,6.07
2018-06-18T00:44:51.112Z,6.07
2018-06-18T00:45:03.518Z,6.07
2018-06-18T00:45:15.919Z,6.08
2018-06-18T00:45:28.347Z,6.08
2018-06-18T00:45:40.796Z,6.08
2018-06-18T00:45:53.321Z,6.08
2018-06-18T00:46:05.738Z,6.08
2018-06-18T00:46:18.134Z,6.08
2018-06-18T00:46:30.550Z,6.08
2018-06-18T00:46:42.947Z,6.08
2018-06-18T00:46:55.339Z,6.08
2018-06-18T00:47:07.718Z,6.08
2018-06-18T00:47:20.165Z,6.08
2018-06-18T00:47:32.570Z,6.08
2018-06-18T00:47:44.965Z,6.08
2018-06-18T00:47:57.349Z,6.08
2018-06-18T00:48:09.754Z,6.08
2018-06-18T00:48:22.140Z,6.08
2018-06-18T00:48:34.690Z,6.08
2018-06-18T00:48:47.107Z,6.08
2018-06-18T00:48:59.536Z,6.08
2018-06-18T00:49:11.941Z,6.08
2018-06-18T00:49:24.378Z,6.08
2018-06-18T00:49:36.789Z,6.08
2018-06-18T00:49:49.237Z,6.08
2018-06-18T00:50:01.674Z,6.08
2018-06-18T00:50:14.097Z,6.08
2018-06-18T00:50:26.489Z,6.08
2018-06-18T00:50:38.910Z,6.08
2018-06-18T00:50:51.304Z,6.08
2018-06-18T00:51:03.706Z,6.08
2018-06-18T00:51:16.107Z,6.08
2018-06-18T00:51:28.512Z,6.08
2018-06-18T00:51:40.902Z,6.08
2018-06-18T00:51:53.305Z,6.08
2018-06-18T00:52:05.731Z,6.08
2018-06-18T00:52:18.129Z,6.08
2018-06-18T00:52:30.509Z,6.08
2018-06-18T00:52:42.930Z,6.08
2018-06-18T00:52:55.340Z,6.08
2018-06-18T00:53:07.751Z,6.08
2018-06-18T00:53:20.146Z,6.08
2018-06-18T00:53:32.578Z,6.08
2018-06-18T00:53:44.986Z,6.08
2018-06-18T00:53:57.370Z,6.08
2018-06-18T00:54:09.784Z,6.08
2018-06-18T00:54:22.192Z,6.08
2018-06-18T00:54:34.644Z,6.08
2018-06-18T00:54:47.026Z,6.08
2018-06-18T00:54:59.405Z,6.08
2018-06-18T00:55:11.921Z,6.08
2018-06-18T00:55:24.324Z,6.08
2018-06-18T00:55:36.715Z,6.08
2018-06-18T00:55:49.096Z,6.08
2018-06-18T00:56:01.497Z,6.08
2018-06-18T00:56:13.918Z,4.65
2018-06-18T00:56:26.300Z,4.65
2018-06-18T00:56:38.696Z,4.65
2018-06-18T00:56:51.102Z,4.65
2018-06-18T00:57:03.496Z,4.65
2018-06-18T00:57:15.911Z,4.65
2018-06-18T00:57:28.299Z,4.65
2018-06-18T00:57:40.728Z,4.65
2018-06-18T00:57:53.100Z,4.65
2018-06-18T00:58:05.525Z,4.65
2018-06-18T00:58:17.907Z,4.65
2018-06-18T00:58:30.309Z,4.65
2018-06-18T00:58:42.715Z,4.65
2018-06-18T00:58:55.122Z,4.65
2018-06-18T00:59:07.561Z,4.65
2018-06-18T00:59:19.958Z,4.65
2018-06-18T00:59:32.342Z,4.65
2018-06-18T00:59:44.733Z,4.65
2018-06-18T00:59:57.139Z,4.65
2018-06-18T01:00:09.635Z,4.65
2018-06-18T01:00:22.109Z,4.65
2018-06-18T01:00:34.594Z,4.65
2018-06-18T01:00:47.037Z,4.65
2018-06-18T01:00:59.456Z,4.65
2018-06-18T01:01:12.073Z,4.65
2018-06-18T01:01:24.482Z,4.65
2018-06-18T01:01:36.891Z,4.65
2018-06-18T01:01:49.310Z,4.65
2018-06-18T01:02:01.720Z,4.65
2018-06-18T01:02:14.121Z,4.65
2018-06-18T01:02:26.527Z,4.65
2018-06-18T01:02:39.079Z,4.65
2018-06-18T01:02:51.481Z,4.65
2018-06-18T01:03:03.907Z,4.65
2018-06-18T01:03:16.360Z,4.65
2018-06-18T01:03:28.801Z,4.65
2018-06-18T01:03:41.221Z,4.65
2018-06-18T01:03:53.630Z,4.65
2018-06-18T01:04:06.045Z,4.65
2018-06-18T01:04:18.500Z,4.65
2018-06-18T01:04:30.915Z,4.65
2018-06-18T01:04:43.328Z,4.65
2018-06-18T01:04:55.737Z,4.65
2018-06-18T01:05:08.176Z,4.65
2018-06-18T01:05:20.588Z,4.65
2018-06-18T01:05:33.011Z,4.65
2018-06-18T01:05:45.417Z,4.65
2018-06-18T01:05:57.825Z,4.65
2018-06-18T01:06:10.267Z,3.9
2018-06-18T01:06:22.681Z,3.9
2018-06-18T01:06:35.084Z,3.9
2018-06-18T01:06:47.482Z,3.9
2018-06-18T01:06:59.873Z,3.9
2018-06-18T01:07:12.746Z,3.9
2018-06-18T01:07:25.133Z,3.9
2018-06-18T01:07:37.526Z,3.9
2018-06-18T01:07:49.998Z,3.9
2018-06-18T01:08:02.398Z,3.9
2018-06-18T01:08:14.789Z,3.9
2018-06-18T01:08:27.204Z,3.9
2018-06-18T01:08:39.583Z,3.9
2018-06-18T01:08:51.957Z,3.9
2018-06-18T01:09:04.362Z,3.9
2018-06-18T01:09:16.772Z,3.9
2018-06-18T01:09:29.172Z,3.9
2018-06-18T01:09:41.577Z,3.9
2018-06-18T01:09:53.974Z,3.9
2018-06-18T01:10:06.403Z,3.9
2018-06-18T01:10:18.805Z,3.9
2018-06-18T01:10:31.204Z,3.9
2018-06-18T01:10:43.607Z,3.9
2018-06-18T01:10:56.072Z,3.9
2018-06-18T01:11:08.542Z,3.9
2018-06-18T01:11:21.003Z,3.9
2018-06-18T01:11:33.904Z,3.9
2018-06-18T01:11:46.284Z,3.9
2018-06-18T01:11:58.863Z,3.9
2018-06-18T01:12:11.268Z,3.9
2018-06-18T01:12:23.738Z,3.9
2018-06-18T01:12:36.120Z,3.9
2018-06-18T01:12:48.518Z,3.9
2018-06-18T01:13:00.986Z,3.9
2018-06-18T01:13:13.392Z,3.9
2018-06-18T01:13:25.794Z,3.9
2018-06-18T01:13:38.210Z,3.9
2018-06-18T01:13:50.623Z,3.9
2018-06-18T01:14:03.036Z,3.9
2018-06-18T01:14:15.436Z,3.9
2018-06-18T01:14:27.827Z,3.9
2018-06-18T01:14:40.265Z,3.9
2018-06-18T01:14:52.666Z,3.9
2018-06-18T01:15:05.055Z,3.9
2018-06-18T01:15:17.448Z,3.9
2018-06-18T01:15:29.830Z,3.9
2018-06-18T01:15:42.242Z,3.9
2018-06-18T01:15:54.647Z,3.9
2018-06-18T01:16:07.152Z,6.3
2018-06-18T01:16:19.552Z,6.3
2018-06-18T01:16:31.945Z,6.3
2018-06-18T01:16:44.346Z,6.3
2018-06-18T01:16:56.740Z,6.3
2018-06-18T01:17:09.187Z,6.3
2018-06-18T01:17:21.581Z,6.3
2018-06-18T01:17:33.974Z,6.3
2018-06-18T01:17:46.353Z,6.3
2018-06-18T01:17:58.923Z,6.3
2018-06-18T01:18:11.316Z,6.3
2018-06-18T01:18:23.722Z,6.3
2018-06-18T01:18:36.145Z,6.3
2018-06-18T01:18:48.558Z,6.3
2018-06-18T01:19:00.954Z,6.3
2018-06-18T01:19:13.730Z,6.3
2018-06-18T01:19:26.215Z,6.3
2018-06-18T01:19:38.630Z,6.3
2018-06-18T01:19:51.014Z,6.3
2018-06-18T01:20:03.425Z,6.3
2018-06-18T01:20:15.829Z,6.3
2018-06-18T01:20:28.239Z,6.3
2018-06-18T01:20:40.626Z,6.3
2018-06-18T01:20:53.038Z,6.3
2018-06-18T01:21:05.439Z,6.3
2018-06-18T01:21:17.865Z,6.3
2018-06-18T01:21:30.311Z,6.3
2018-06-18T01:21:42.735Z,6.3
2018-06-18T01:21:55.126Z,6.3
2018-06-18T01:22:07.530Z,6.3
2018-06-18T01:22:19.989Z,6.3
2018-06-18T01:22:32.375Z,6.3
2018-06-18T01:22:44.776Z,6.3
2018-06-18T01:22:57.164Z,6.3
2018-06-18T01:23:09.602Z,6.3
2018-06-18T01:23:21.999Z,6.3
2018-06-18T01:23:34.395Z,6.3
2018-06-18T01:23:46.785Z,6.3
2018-06-18T01:23:59.153Z,6.3
2018-06-18T01:24:11.560Z,6.3
2018-06-18T01:24:23.965Z,6.3
2018-06-18T01:24:36.376Z,6.3
2018-06-18T01:24:48.782Z,6.3
2018-06-18T01:25:01.205Z,6.3
2018-06-18T01:25:13.603Z,6.3
2018-06-18T01:25:26.021Z,6.3
2018-06-18T01:25:38.424Z,6.3
2018-06-18T01:25:50.797Z,6.3
2018-06-18T01:26:03.457Z,6.3
2018-06-18T01:26:15.861Z,4.54
2018-06-18T01:26:28.267Z,4.54
2018-06-18T01:26:40.805Z,4.54
2018-06-18T01:26:53.391Z,4.54
2018-06-18T01:27:05.804Z,4.54
2018-06-18T01:27:18.227Z,4.54
2018-06-18T01:27:30.643Z,4.54
2018-06-18T01:27:43.050Z,4.54
2018-06-18T01:27:55.441Z,4.54
2018-06-18T01:28:07.818Z,4.54
2018-06-18T01:28:20.223Z,4.54
2018-06-18T01:28:32.648Z,4.54
2018-06-18T01:28:45.040Z,4.54
2018-06-18T01:28:57.469Z,4.54
2018-06-18T01:29:09.873Z,4.54
2018-06-18T01:29:22.277Z,4.54
2018-06-18T01:29:34.679Z,4.54
2018-06-18T01:29:47.078Z,4.54
2018-06-18T01:29:59.494Z,4.54
2018-06-18T01:30:12.055Z,4.54
2018-06-18T01:30:24.446Z,4.54
2018-06-18T01:30:36.839Z,4.54
2018-06-18T01:30:49.243Z,4.54
2018-06-18T01:31:01.659Z,4.54
2018-06-18T01:31:14.061Z,4.54
2018-06-18T01:31:26.518Z,4.54
2018-06-18T01:31:38.976Z,4.54
2018-06-18T01:31:51.381Z,4.54
2018-06-18T01:32:03.766Z,4.54
2018-06-18T01:32:16.167Z,4.54
2018-06-18T01:32:28.581Z,4.54
2018-06-18T01:32:40.985Z,4.54
2018-06-18T01:32:53.393Z,4.54
2018-06-18T01:33:05.796Z,4.54
2018-06-18T01:33:18.202Z,4.54
2018-06-18T01:33:30.599Z,4.54
2018-06-18T01:33:42.999Z,4.54
2018-06-18T01:33:55.405Z,4.54
2018-06-18T01:34:07.803Z,4.54
2018-06-18T01:34:20.190Z,4.54
2018-06-18T01:34:32.611Z,4.54
2018-06-18T01:34:45.011Z,4.54
2018-06-18T01:34:57.416Z,4.54
2018-06-18T01:35:09.838Z,4.54
2018-06-18T01:35:22.303Z,4.54
2018-06-18T01:35:34.720Z,4.54
2018-06-18T01:35:47.118Z,4.54
2018-06-18T01:35:59.521Z,4.54
2018-06-18T01:36:11.907Z,5.45
2018-06-18T01:36:24.304Z,5.45
2018-06-18T01:36:36.697Z,5.45
2018-06-18T01:36:49.097Z,5.45
2018-06-18T01:37:01.493Z,5.45
2018-06-18T01:37:14.174Z,5.45
2018-06-18T01:37:26.573Z,5.45
2018-06-18T01:37:38.958Z,5.45
2018-06-18T01:37:51.354Z,5.45
2018-06-18T01:38:03.747Z,5.45
2018-06-18T01:38:16.133Z,5.45
2018-06-18T01:38:28.538Z,5.45
2018-06-18T01:38:40.935Z,5.45
2018-06-18T01:38:53.333Z,5.45
2018-06-18T01:39:06.025Z,5.45
2018-06-18T01:39:18.437Z,5.45
2018-06-18T01:39:30.831Z,5.45
2018-06-18T01:39:43.229Z,5.45
2018-06-18T01:39:55.611Z,5.45
2018-06-18T01:40:08.023Z,5.45
2018-06-18T01:40:20.452Z,5.45
2018-06-18T01:40:32.871Z,5.45
2018-06-18T01:40:45.273Z,5.45
2018-06-18T01:40:57.696Z,5.45
2018-06-18T01:41:10.092Z,5.45
2018-06-18T01:41:22.488Z,5.45
2018-06-18T01:41:34.857Z,5.45
2018-06-18T01:41:47.423Z,5.45
2018-06-18T01:41:59.840Z,5.45
2018-06-18T01:42:12.258Z,5.45
2018-06-18T01:42:24.657Z,5.45
2018-06-18T01:42:37.031Z,5.45
2018-06-18T01:42:49.433Z,5.45
2018-06-18T01:43:01.821Z,5.45
2018-06-18T01:43:14.220Z,5.45
2018-06-18T01:43:26.606Z,5.45
2018-06-18T01:43:39.051Z,5.45
2018-06-18T01:43:51.506Z,5.45
2018-06-18T01:44:03.930Z,5.45
2018-06-18T01:44:16.332Z,5.45
2018-06-18T01:44:28.738Z,5.45
2018-06-18T01:44:41.143Z,5.45
2018-06-18T01:44:53.544Z,5.45
2018-06-18T01:45:05.950Z,5.45
2018-06-18T01:45:18.327Z,5.45
2018-06-18T01:45:30.724Z,5.45
2018-06-18T01:45:43.144Z,5.45
2018-06-18T01:45:55.681Z,5.45
2018-06-18T01:46:08.096Z,4.7
2018-06-18T01:46:20.495Z,4.7
2018-06-18T01:46:32.893Z,4.7
2018-06-18T01:46:45.285Z,4.7
2018-06-18T01:46:57.709Z,4.7
2018-06-18T01:47:10.108Z,4.7
2018-06-18T01:47:22.500Z,4.7
2018-06-18T01:47:34.894Z,4.7
2018-06-18T01:47:47.323Z,4.7
2018-06-18T01:47:59.729Z,4.7
2018-06-18T01:48:12.117Z,4.7
2018-06-18T01:48:24.524Z,4.7
2018-06-18T01:48:37.061Z,4.7
2018-06-18T01:48:49.497Z,4.7
2018-06-18T01:49:01.873Z,4.7
2018-06-18T01:49:14.277Z,4.7
2018-06-18T01:49:26.687Z,4.7
2018-06-18T01:49:39.086Z,4.7
2018-06-18T01:49:51.476Z,4.7
2018-06-18T01:50:03.860Z,4.7
2018-06-18T01:50:16.261Z,4.7
2018-06-18T01:50:28.651Z,4.7
2018-06-18T01:50:41.044Z,4.7
2018-06-18T01:50:53.425Z,4.7
2018-06-18T01:51:05.806Z,4.7
2018-06-18T01:51:18.188Z,4.7
2018-06-18T01:51:30.581Z,4.7
2018-06-18T01:51:42.977Z,4.7
2018-06-18T01:51:55.346Z,4.7
2018-06-18T01:52:07.749Z,4.7
2018-06-18T01:52:20.141Z,4.7
2018-06-18T01:52:32.522Z,4.7
2018-06-18T01:52:44.917Z,4.7
2018-06-18T01:52:57.326Z,4.7
2018-06-18T01:53:09.728Z,4.7
2018-06-18T01:53:22.115Z,4.7
2018-06-18T01:53:34.617Z,4.7
2018-06-18T01:53:47.011Z,4.7
2018-06-18T01:53:59.421Z,4.7
2018-06-18T01:54:11.877Z,4.7
2018-06-18T01:54:24.280Z,4.7
2018-06-18T01:54:36.667Z,4.7
2018-06-18T01:54:49.088Z,4.7
2018-06-18T01:55:01.481Z,4.7
2018-06-18T01:55:14.062Z,4.7
2018-06-18T01:55:26.459Z,4.7
2018-06-18T01:55:38.859Z,4.7
2018-06-18T01:55:51.272Z,4.7
2018-06-18T01:56:03.669Z,4.7
2018-06-18T01:56:16.085Z,5.6
2018-06-18T01:56:28.482Z,5.6
2018-06-18T01:56:40.887Z,5.6
2018-06-18T01:56:53.307Z,5.6
2018-06-18T01:57:05.752Z,5.6
2018-06-18T01:57:18.150Z,5.6
2018-06-18T01:57:30.551Z,5.6
2018-06-18T01:57:42.944Z,5.6
2018-06-18T01:57:55.344Z,5.6
2018-06-18T01:58:07.734Z,5.6
2018-06-18T01:58:20.138Z,5.6
2018-06-18T01:58:32.563Z,5.6
2018-06-18T01:58:44.960Z,5.6
2018-06-18T01:58:57.358Z,5.6
2018-06-18T01:59:09.796Z,5.6
2018-06-18T01:59:22.207Z,5.6
2018-06-18T01:59:34.624Z,5.6
2018-06-18T01:59:47.018Z,5.6
2018-06-18T01:59:59.424Z,5.6
2018-06-18T02:00:11.864Z,5.6
2018-06-18T02:00:24.273Z,5.6
2018-06-18T02:00:36.700Z,5.6
2018-06-18T02:00:49.137Z,5.6
2018-06-18T02:01:01.730Z,5.6
2018-06-18T02:01:14.181Z,5.6
2018-06-18T02:01:26.600Z,5.6
2018-06-18T02:01:38.985Z,5.6
2018-06-18T02:01:51.389Z,5.6
2018-06-18T02:02:03.852Z,5.6
2018-06-18T02:02:16.249Z,5.6
2018-06-18T02:02:28.663Z,5.6
2018-06-18T02:02:41.226Z,5.6
2018-06-18T02:02:53.638Z,5.6
2018-06-18T02:03:06.069Z,5.6
2018-06-18T02:03:18.464Z,5.6
2018-06-18T02:03:30.863Z,5.6
2018-06-18T02:03:43.263Z,5.6
2018-06-18T02:03:55.680Z,5.6
2018-06-18T02:04:08.088Z,5.6
2018-06-18T02:04:20.502Z,5.6
2018-06-18T02:04:32.943Z,5.6
2018-06-18T02:04:45.351Z,5.6
2018-06-18T02:04:57.750Z,5.6
2018-06-18T02:05:10.170Z,5.6
2018-06-18T02:05:22.583Z,5.6
2018-06-18T02:05:35.057Z,5.6
2018-06-18T02:05:47.541Z,5.6
2018-06-18T02:05:59.937Z,5.6
2018-06-18T02:06:12.350Z,7.5
2018-06-18T02:06:24.756Z,7.5
2018-06-18T02:06:37.168Z,7.5
2018-06-18T02:06:49.546Z,7.5
2018-06-18T02:07:02.090Z,7.5
2018-06-18T02:07:14.717Z,7.5
2018-06-18T02:07:27.093Z,7.5
2018-06-18T02:07:39.492Z,7.5
2018-06-18T02:07:52.199Z,7.5
2018-06-18T02:08:04.631Z,7.5
2018-06-18T02:08:17.024Z,7.5
2018-06-18T02:08:29.431Z,7.5
2018-06-18T02:08:41.828Z,7.5
2018-06-18T02:08:54.241Z,7.5
2018-06-18T02:09:06.655Z,7.5
2018-06-18T02:09:19.074Z,7.5
2018-06-18T02:09:31.491Z,7.5
2018-06-18T02:09:43.909Z,7.5
2018-06-18T02:09:56.317Z,7.5
2018-06-18T02:10:08.714Z,7.5
2018-06-18T02:10:21.320Z,7.5
2018-06-18T02:10:34.600Z,7.5
2018-06-18T02:10:46.993Z,7.5
2018-06-18T02:10:59.403Z,7.5
2018-06-18T02:11:11.823Z,7.5
2018-06-18T02:11:24.223Z,7.5
2018-06-18T02:11:36.604Z,7.5
2018-06-18T02:11:49.016Z,7.5
2018-06-18T02:12:01.424Z,7.5
2018-06-18T02:12:13.868Z,7.5
2018-06-18T02:12:26.292Z,7.5
2018-06-18T02:12:38.689Z,7.5
2018-06-18T02:12:51.117Z,7.5
2018-06-18T02:13:03.538Z,7.5
2018-06-18T02:13:15.944Z,7.5
2018-06-18T02:13:28.358Z,7.5
2018-06-18T02:13:40.754Z,7.5
2018-06-18T02:13:53.214Z,7.5
2018-06-18T02:14:05.609Z,7.5
2018-06-18T02:14:18.015Z,7.5
2018-06-18T02:14:30.458Z,7.5
2018-06-18T02:14:42.843Z,7.5
2018-06-18T02:14:55.262Z,7.5
2018-06-18T02:15:07.673Z,7.5
2018-06-18T02:15:20.093Z,7.5
2018-06-18T02:15:32.466Z,7.5
2018-06-18T02:15:44.862Z,7.5
2018-06-18T02:15:57.260Z,7.5
2018-06-18T02:16:09.751Z,11.09
2018-06-18T02:16:22.825Z,11.09
2018-06-18T02:16:35.219Z,11.09
2018-06-18T02:16:47.640Z,11.09
2018-06-18T02:17:00.216Z,11.09
2018-06-18T02:17:12.610Z,11.09
2018-06-18T02:17:25.008Z,11.09
2018-06-18T02:17:37.403Z,11.09
2018-06-18T02:17:49.805Z,11.09
2018-06-18T02:18:02.368Z,11.09
2018-06-18T02:18:14.778Z,11.09
2018-06-18T02:18:27.231Z,11.09
2018-06-18T02:18:39.640Z,11.09
2018-06-18T02:18:52.052Z,11.09
2018-06-18T02:19:04.483Z,11.09
2018-06-18T02:19:17.061Z,11.09
2018-06-18T02:19:29.459Z,11.09
2018-06-18T02:19:41.873Z,11.09
2018-06-18T02:19:54.295Z,11.09
2018-06-18T02:20:06.708Z,11.09
2018-06-18T02:20:19.129Z,11.09
2018-06-18T02:20:31.509Z,11.09
2018-06-18T02:20:43.909Z,11.09
2018-06-18T02:20:56.303Z,11.09
2018-06-18T02:21:08.729Z,11.09
2018-06-18T02:21:21.144Z,11.09
2018-06-18T02:21:33.545Z,11.09
2018-06-18T02:21:45.924Z,11.09
2018-06-18T02:21:58.331Z,11.09
2018-06-18T02:22:10.742Z,11.09
2018-06-18T02:22:23.176Z,11.09
2018-06-18T02:22:35.568Z,11.09
2018-06-18T02:22:47.971Z,11.09
2018-06-18T02:23:00.355Z,11.09
2018-06-18T02:23:12.806Z,11.09
2018-06-18T02:23:25.205Z,11.09
2018-06-18T02:23:37.632Z,11.09
2018-06-18T02:23:50.081Z,11.09
2018-06-18T02:24:02.485Z,11.09
2018-06-18T02:24:14.901Z,11.09
2018-06-18T02:24:27.303Z,11.09
2018-06-18T02:24:39.858Z,11.09
2018-06-18T02:24:52.313Z,11.09
2018-06-18T02:25:04.723Z,11.09
2018-06-18T02:25:17.115Z,11.09
2018-06-18T02:25:29.549Z,11.09
2018-06-18T02:25:41.998Z,11.09
2018-06-18T02:25:54.401Z,11.09
2018-06-18T02:26:07.053Z,11.09
2018-06-18T02:26:19.447Z,4.42
2018-06-18T02:26:31.843Z,4.42
2018-06-18T02:26:44.241Z,4.42
2018-06-18T02:26:56.642Z,4.42
2018-06-18T02:27:09.031Z,4.42
2018-06-18T02:27:21.434Z,4.42
2018-06-18T02:27:33.816Z,4.42
2018-06-18T02:27:46.208Z,4.42
2018-06-18T02:27:58.594Z,4.42
2018-06-18T02:28:11.021Z,4.42
2018-06-18T02:28:23.431Z,4.42
2018-06-18T02:28:35.831Z,4.42
2018-06-18T02:28:48.222Z,4.42
2018-06-18T02:29:00.627Z,4.42
2018-06-18T02:29:13.039Z,4.42
2018-06-18T02:29:25.452Z,4.42
2018-06-18T02:29:37.852Z,4.42
2018-06-18T02:29:50.250Z,4.42
2018-06-18T02:30:02.647Z,4.42
2018-06-18T02:30:15.085Z,4.42
2018-06-18T02:30:27.540Z,4.42
2018-06-18T02:30:39.967Z,4.42
2018-06-18T02:30:52.590Z,4.42
2018-06-18T02:31:05.024Z,4.42
2018-06-18T02:31:17.463Z,4.42
2018-06-18T02:31:29.862Z,4.42
2018-06-18T02:31:42.292Z,4.42
2018-06-18T02:31:54.733Z,4.42
2018-06-18T02:32:07.163Z,4.42
2018-06-18T02:32:19.591Z,4.42
2018-06-18T02:32:32.001Z,4.42
2018-06-18T02:32:44.396Z,4.42
2018-06-18T02:32:56.796Z,4.42
2018-06-18T02:33:09.205Z,4.42
2018-06-18T02:33:21.631Z,4.42
2018-06-18T02:33:34.046Z,4.42
2018-06-18T02:33:46.449Z,4.42
2018-06-18T02:33:58.874Z,4.42
2018-06-18T02:34:11.304Z,4.42
2018-06-18T02:34:23.751Z,4.42
2018-06-18T02:34:36.168Z,4.42
2018-06-18T02:34:48.595Z,4.42
2018-06-18T02:35:01.029Z,4.42
2018-06-18T02:35:13.497Z,4.42
2018-06-18T02:35:25.930Z,4.42
2018-06-18T02:35:38.370Z,4.42
2018-06-18T02:35:50.870Z,4.42
2018-06-18T02:36:03.312Z,4.42
2018-06-18T02:36:15.821Z,5.25
2018-06-18T02:36:28.235Z,5.25
2018-06-18T02:36:40.666Z,5.25
2018-06-18T02:36:53.082Z,5.25
2018-06-18T02:37:05.506Z,5.25
2018-06-18T02:37:17.907Z,5.25
2018-06-18T02:37:30.325Z,5.25
2018-06-18T02:37:42.717Z,5.25
2018-06-18T02:37:55.157Z,5.25
2018-06-18T02:38:07.537Z,5.25
2018-06-18T02:38:19.963Z,5.25
2018-06-18T02:38:32.368Z,5.25
2018-06-18T02:38:44.770Z,5.25
2018-06-18T02:38:57.218Z,5.25
2018-06-18T02:39:09.686Z,5.25
2018-06-18T02:39:22.082Z,5.25
2018-06-18T02:39:34.496Z,5.25
2018-06-18T02:39:46.897Z,5.25
2018-06-18T02:39:59.308Z,5.25
2018-06-18T02:40:11.726Z,5.25
2018-06-18T02:40:24.142Z,5.25
2018-06-18T02:40:36.572Z,5.25
2018-06-18T02:40:49.035Z,5.25
2018-06-18T02:41:01.447Z,5.25
2018-06-18T02:41:13.902Z,5.25
2018-06-18T02:41:26.335Z,5.25
2018-06-18T02:41:38.814Z,5.25
2018-06-18T02:41:51.405Z,5.25
2018-06-18T02:42:03.856Z,5.25
2018-06-18T02:42:16.270Z,5.25
2018-06-18T02:42:28.703Z,5.25
2018-06-18T02:42:41.132Z,5.25
2018-06-18T02:42:53.525Z,5.25
2018-06-18T02:43:05.937Z,5.25
2018-06-18T02:43:18.357Z,5.25
2018-06-18T02:43:30.767Z,5.25
2018-06-18T02:43:43.209Z,5.25
2018-06-18T02:43:55.632Z,5.25
2018-06-18T02:44:08.099Z,5.25
2018-06-18T02:44:20.545Z,5.25
2018-06-18T02:44:32.956Z,5.25
2018-06-18T02:44:45.361Z,5.25
2018-06-18T02:44:57.786Z,5.25
2018-06-18T02:45:10.275Z,5.25
2018-06-18T02:45:22.673Z,5.25
2018-06-18T02:45:35.095Z,5.25
2018-06-18T02:45:47.504Z,5.25
2018-06-18T02:46:00.072Z,5.25
2018-06-18T02:46:12.477Z,4.29
2018-06-18T02:46:24.899Z,4.29
2018-06-18T02:46:37.330Z,4.29
2018-06-18T02:46:49.845Z,4.29
2018-06-18T02:47:02.259Z,4.29